createdAt,value
2019-03-10T00:00:29.021Z,80.76
2019-03-10T00:01:29.058Z,80.71
2019-03-10T00:02:29.017Z,80.84
2019-03-10T00:03:29.023Z,80.76
2019-03-10T00:04:28.975Z,80.79
2019-03-10T00:05:28.990Z,80.71
2019-03-10T00:06:29.020Z,80.60
2019-03-10T00:07:28.956Z,80.89
2019-03-10T00:08:28.994Z,81.29
2019-03-10T00:09:28.964Z,81.02
2019-03-10T00:10:28.992Z,81.05
2019-03-10T00:11:29.029Z,81.02
2019-03-10T00:12:29.075Z,80.73
2019-03-10T00:13:29.047Z,81.08
2019-03-10T00:14:28.981Z,81.00
2019-03-10T00:15:28.982Z,81.24
2019-03-10T00:16:29.066Z,80.76
2019-03-10T00:17:28.984Z,80.39
2019-03-10T00:18:28.949Z,80.05
2019-03-10T00:19:29.065Z,79.49
2019-03-10T00:20:28.999Z,79.33
2019-03-10T00:21:29.012Z,79.41
2019-03-10T00:22:29.008Z,79.86
2019-03-10T00:23:28.956Z,79.86
2019-03-10T00:24:28.978Z,79.79
2019-03-10T00:25:29.064Z,79.89
2019-03-10T00:26:29.070Z,79.99
2019-03-10T00:27:29.067Z,80.47
2019-03-10T00:28:29.083Z,80.49
2019-03-10T00:29:29.026Z,80.65
2019-03-10T00:30:29.073Z,80.60
2019-03-10T00:31:29.073Z,80.81
2019-03-10T00:32:29.072Z,80.55
2019-03-10T00:33:29.073Z,80.60
2019-03-10T00:34:28.963Z,80.94
2019-03-10T00:35:29.049Z,80.52
2019-03-10T00:36:29.040Z,80.81
2019-03-10T00:37:29.053Z,80.73
2019-03-10T00:38:29.101Z,80.44
2019-03-10T00:39:29.040Z,79.99
2019-03-10T00:40:29.051Z,79.60
2019-03-10T00:41:29.104Z,79.25
2019-03-10T00:42:29.112Z,79.10
2019-03-10T00:43:29.048Z,78.97
2019-03-10T00:44:29.032Z,78.99
2019-03-10T00:45:29.111Z,78.97
2019-03-10T00:46:29.065Z,78.33
2019-03-10T00:47:29.105Z,78.54
2019-03-10T00:48:29.054Z,78.47
2019-03-10T00:49:29.116Z,78.49
2019-03-10T00:50:29.149Z,78.28
2019-03-10T00:51:29.136Z,78.39
2019-03-10T00:52:29.116Z,78.67
2019-03-10T00:53:29.124Z,78.57
2019-03-10T00:54:29.044Z,78.15
2019-03-10T00:55:29.115Z,78.23
2019-03-10T00:56:29.090Z,78.47
2019-03-10T00:57:29.053Z,78.15
2019-03-10T00:58:29.104Z,77.54
2019-03-10T00:59:29.061Z,77.28
2019-03-10T01:00:29.051Z,77.09
2019-03-10T01:01:29.127Z,77.17
2019-03-10T01:02:29.048Z,77.20
2019-03-10T01:03:29.045Z,77.09
2019-03-10T01:04:29.121Z,77.25
2019-03-10T01:05:29.120Z,77.39
2019-03-10T01:06:29.120Z,77.81
2019-03-10T01:07:29.049Z,78.12
2019-03-10T01:08:29.040Z,78.36
2019-03-10T01:09:29.146Z,77.97
2019-03-10T01:10:29.121Z,77.15
2019-03-10T01:11:29.067Z,77.20
2019-03-10T01:12:29.050Z,77.33
2019-03-10T01:13:29.135Z,77.44
2019-03-10T01:14:29.071Z,77.25
2019-03-10T01:15:29.115Z,77.12
2019-03-10T01:16:29.074Z,77.31
2019-03-10T01:17:29.078Z,76.97
2019-03-10T01:18:29.135Z,76.94
2019-03-10T01:19:29.130Z,77.47
2019-03-10T01:20:29.131Z,77.17
2019-03-10T01:21:29.058Z,77.51
2019-03-10T01:22:29.129Z,78.01
2019-03-10T01:23:29.063Z,78.17
2019-03-10T01:24:29.130Z,77.83
2019-03-10T01:25:29.076Z,77.86
2019-03-10T01:26:29.143Z,78.20
2019-03-10T01:27:29.073Z,78.33
2019-03-10T01:28:29.137Z,78.23
2019-03-10T01:29:29.124Z,78.49
2019-03-10T01:30:29.106Z,78.07
2019-03-10T01:31:29.065Z,78.07
2019-03-10T01:32:29.130Z,78.12
2019-03-10T01:33:29.103Z,77.65
2019-03-10T01:34:29.067Z,77.75
2019-03-10T01:35:29.130Z,77.75
2019-03-10T01:36:29.082Z,77.99
2019-03-10T01:37:29.163Z,78.39
2019-03-10T01:38:29.228Z,78.25
2019-03-10T01:39:29.144Z,77.99
2019-03-10T01:40:29.091Z,78.12
2019-03-10T01:41:29.166Z,77.97
2019-03-10T01:42:29.095Z,77.86
2019-03-10T01:43:29.157Z,77.65
2019-03-10T01:44:29.093Z,77.78
2019-03-10T01:45:29.166Z,77.54
2019-03-10T01:46:29.139Z,77.57
2019-03-10T01:47:29.067Z,77.49
2019-03-10T01:48:29.141Z,77.59
2019-03-10T01:49:29.070Z,77.94
2019-03-10T01:50:29.141Z,77.89
2019-03-10T01:51:29.076Z,77.54
2019-03-10T01:52:29.144Z,77.83
2019-03-10T01:53:29.075Z,77.86
2019-03-10T01:54:29.146Z,77.99
2019-03-10T01:55:29.071Z,77.31
2019-03-10T01:56:29.128Z,76.62
2019-03-10T01:57:29.143Z,76.62
2019-03-10T01:58:29.110Z,76.34
2019-03-10T01:59:29.144Z,76.62
2019-03-10T02:00:29.067Z,76.18
2019-03-10T02:01:29.076Z,76.23
2019-03-10T02:02:29.091Z,75.92
2019-03-10T02:03:29.128Z,76.15
2019-03-10T02:04:29.141Z,76.12
2019-03-10T02:05:29.058Z,76.07
2019-03-10T02:06:29.091Z,76.36
2019-03-10T02:07:29.103Z,76.20
2019-03-10T02:08:29.104Z,76.49
2019-03-10T02:09:29.166Z,76.39
2019-03-10T02:10:29.132Z,76.36
2019-03-10T02:11:29.109Z,76.41
2019-03-10T02:12:29.163Z,76.52
2019-03-10T02:13:29.169Z,76.36
2019-03-10T02:14:29.171Z,76.67
2019-03-10T02:15:29.096Z,76.39
2019-03-10T02:16:29.183Z,76.18
2019-03-10T02:17:29.126Z,76.26
2019-03-10T02:18:29.171Z,76.54
2019-03-10T02:19:29.184Z,76.60
2019-03-10T02:20:29.109Z,76.81
2019-03-10T02:21:29.117Z,76.44
2019-03-10T02:22:29.175Z,76.62
2019-03-10T02:23:29.100Z,76.91
2019-03-10T02:24:29.166Z,76.75
2019-03-10T02:25:29.176Z,76.70
2019-03-10T02:26:29.166Z,76.86
2019-03-10T02:27:29.167Z,77.04
2019-03-10T02:28:29.169Z,76.78
2019-03-10T02:29:29.109Z,76.78
2019-03-10T02:30:29.141Z,76.65
2019-03-10T02:31:29.172Z,76.39
2019-03-10T02:32:29.105Z,76.26
2019-03-10T02:33:29.174Z,76.73
2019-03-10T02:34:29.102Z,76.94
2019-03-10T02:35:29.178Z,77.12
2019-03-10T02:36:29.176Z,76.99
2019-03-10T02:37:29.142Z,76.94
2019-03-10T02:38:29.257Z,77.02
2019-03-10T02:39:29.194Z,77.12
2019-03-10T02:40:29.128Z,77.70
2019-03-10T02:41:29.129Z,77.81
2019-03-10T02:42:29.204Z,77.54
2019-03-10T02:43:29.205Z,77.57
2019-03-10T02:44:29.135Z,76.86
2019-03-10T02:45:29.260Z,77.20
2019-03-10T02:46:29.193Z,77.23
2019-03-10T02:47:29.142Z,77.15
2019-03-10T02:48:29.120Z,76.97
2019-03-10T02:49:29.197Z,76.94
2019-03-10T02:50:29.133Z,76.52
2019-03-10T02:51:29.191Z,76.31
2019-03-10T02:52:29.198Z,75.92
2019-03-10T02:53:29.197Z,75.65
2019-03-10T02:54:29.195Z,75.60
2019-03-10T02:55:29.213Z,75.55
2019-03-10T02:56:29.128Z,75.44
2019-03-10T02:57:29.195Z,75.34
2019-03-10T02:58:29.117Z,75.49
2019-03-10T02:59:29.189Z,75.62
2019-03-10T03:00:29.131Z,75.52
2019-03-10T03:01:29.196Z,75.62
2019-03-10T03:02:29.120Z,76.04
2019-03-10T03:03:29.195Z,76.41
2019-03-10T03:04:29.196Z,75.99
2019-03-10T03:05:37.731Z,76.04
2019-03-10T03:06:29.207Z,76.65
2019-03-10T03:07:29.133Z,76.78
2019-03-10T03:08:29.136Z,76.26
2019-03-10T03:09:29.191Z,76.26
2019-03-10T03:10:29.204Z,76.41
2019-03-10T03:11:29.226Z,76.49
2019-03-10T03:12:29.210Z,76.81
2019-03-10T03:13:29.209Z,77.04
2019-03-10T03:14:29.183Z,77.04
2019-03-10T03:15:29.169Z,77.25
2019-03-10T03:16:29.197Z,77.09
2019-03-10T03:17:29.119Z,77.23
2019-03-10T03:18:29.129Z,77.49
2019-03-10T03:19:29.206Z,77.65
2019-03-10T03:20:29.162Z,77.57
2019-03-10T03:21:42.156Z,77.86
2019-03-10T03:22:29.144Z,77.31
2019-03-10T03:23:29.197Z,77.65
2019-03-10T03:24:29.133Z,77.62
2019-03-10T03:25:29.207Z,77.62
2019-03-10T03:26:29.147Z,77.62
2019-03-10T03:27:29.236Z,78.09
2019-03-10T03:28:29.159Z,77.59
2019-03-10T03:29:29.247Z,77.78
2019-03-10T03:30:29.235Z,77.97
2019-03-10T03:31:29.169Z,78.33
2019-03-10T03:32:29.155Z,78.65
2019-03-10T03:33:29.252Z,78.44
2019-03-10T03:34:29.216Z,78.31
2019-03-10T03:35:29.239Z,78.54
2019-03-10T03:36:29.218Z,78.65
2019-03-10T03:37:29.147Z,78.83
2019-03-10T03:38:29.192Z,79.23
2019-03-10T03:39:29.233Z,79.17
2019-03-10T03:40:29.225Z,79.07
2019-03-10T03:41:29.164Z,78.97
2019-03-10T03:42:29.155Z,79.05
2019-03-10T03:43:29.219Z,79.17
2019-03-10T03:44:29.229Z,79.10
2019-03-10T03:45:29.147Z,79.41
2019-03-10T03:46:29.232Z,79.71
2019-03-10T03:47:29.225Z,79.94
2019-03-10T03:48:29.160Z,80.49
2019-03-10T03:49:29.176Z,80.79
2019-03-10T03:50:29.161Z,81.05
2019-03-10T03:51:29.237Z,81.71
2019-03-10T03:52:29.173Z,81.45
2019-03-10T03:53:29.233Z,81.34
2019-03-10T03:54:29.167Z,80.79
2019-03-10T03:55:29.230Z,80.79
2019-03-10T03:56:29.170Z,80.81
2019-03-10T03:57:29.186Z,80.87
2019-03-10T03:58:29.188Z,81.21
2019-03-10T03:59:29.252Z,81.71
2019-03-10T04:00:29.192Z,81.60
2019-03-10T04:01:29.209Z,81.40
2019-03-10T04:02:29.245Z,81.71
2019-03-10T04:03:29.173Z,81.76
2019-03-10T04:04:29.258Z,81.84
2019-03-10T04:05:29.214Z,81.82
2019-03-10T04:06:29.201Z,81.95
2019-03-10T04:07:29.193Z,82.19
2019-03-10T04:08:29.198Z,82.21
2019-03-10T04:09:29.302Z,82.06
2019-03-10T04:10:29.255Z,81.76
2019-03-10T04:11:29.215Z,81.82
2019-03-10T04:12:29.286Z,81.84
2019-03-10T04:13:29.201Z,81.71
2019-03-10T04:14:29.256Z,81.95
2019-03-10T04:15:29.257Z,82.29
2019-03-10T04:16:29.193Z,82.48
2019-03-10T04:17:29.250Z,82.72
2019-03-10T04:18:29.208Z,83.06
2019-03-10T04:19:29.293Z,83.75
2019-03-10T04:20:29.181Z,84.09
2019-03-10T04:21:29.256Z,84.31
2019-03-10T04:22:29.203Z,84.79
2019-03-10T04:23:29.255Z,85.61
2019-03-10T04:24:29.184Z,86.36
2019-03-10T04:25:29.265Z,86.94
2019-03-10T04:26:29.097Z,87.32
2019-03-10T04:27:29.155Z,87.72
2019-03-10T04:28:29.101Z,87.96
2019-03-10T04:29:29.137Z,88.41
2019-03-10T04:30:29.157Z,88.89
2019-03-10T04:31:29.201Z,89.27
2019-03-10T04:32:29.150Z,89.67
2019-03-10T04:33:29.200Z,90.09
2019-03-10T04:34:29.085Z,90.34
2019-03-10T04:35:29.154Z,90.74
2019-03-10T04:36:29.265Z,91.55
2019-03-10T04:37:29.164Z,92.32
2019-03-10T04:38:29.198Z,92.51
2019-03-10T04:39:29.269Z,92.76
2019-03-10T04:40:29.275Z,93.02
2019-03-10T04:41:29.269Z,93.21
2019-03-10T04:42:29.208Z,93.51
2019-03-10T04:43:29.283Z,93.51
2019-03-10T04:44:29.278Z,93.45
2019-03-10T04:45:29.214Z,93.16
2019-03-10T04:46:29.269Z,92.81
2019-03-10T04:47:29.197Z,92.57
2019-03-10T04:48:29.269Z,92.57
2019-03-10T04:49:29.271Z,92.81
2019-03-10T04:50:29.196Z,93.05
2019-03-10T04:51:29.272Z,92.89
2019-03-10T04:52:29.269Z,92.57
2019-03-10T04:53:29.278Z,92.43
2019-03-10T04:54:29.197Z,92.59
2019-03-10T04:55:29.271Z,92.59
2019-03-10T04:56:29.212Z,92.81
2019-03-10T04:57:29.271Z,93.16
2019-03-10T04:58:29.230Z,93.37
2019-03-10T04:59:29.281Z,93.54
2019-03-10T05:00:29.218Z,93.64
2019-03-10T05:01:29.292Z,93.78
2019-03-10T05:02:29.283Z,93.99
2019-03-10T05:03:29.286Z,94.12
2019-03-10T05:04:31.510Z,94.34
2019-03-10T05:05:29.219Z,94.26
2019-03-10T05:06:29.338Z,94.29
2019-03-10T05:07:29.286Z,94.42
2019-03-10T05:08:29.208Z,94.56
2019-03-10T05:09:29.217Z,94.77
2019-03-10T05:10:29.284Z,94.99
2019-03-10T05:11:29.225Z,95.18
2019-03-10T05:12:29.283Z,95.31
2019-03-10T05:13:29.223Z,95.50
2019-03-10T05:14:29.291Z,95.64
2019-03-10T05:15:29.214Z,95.85
2019-03-10T05:16:29.215Z,96.07
2019-03-10T05:17:29.286Z,96.26
2019-03-10T05:18:29.221Z,96.53
2019-03-10T05:19:29.218Z,96.80
2019-03-10T05:20:29.294Z,97.10
2019-03-10T05:21:29.219Z,97.34
2019-03-10T05:22:29.292Z,97.45
2019-03-10T05:23:29.220Z,97.55
2019-03-10T05:24:29.240Z,97.69
2019-03-10T05:25:29.290Z,97.93
2019-03-10T05:26:29.240Z,98.07
2019-03-10T05:27:29.295Z,98.10
2019-03-10T05:28:29.297Z,98.04
2019-03-10T05:29:29.300Z,98.02
2019-03-10T05:30:29.298Z,98.07
2019-03-10T05:31:29.231Z,98.31
2019-03-10T05:32:29.306Z,98.59
2019-03-10T05:33:29.301Z,98.99
2019-03-10T05:34:29.298Z,99.32
2019-03-10T05:35:29.232Z,99.67
2019-03-10T05:36:29.176Z,99.99
2019-03-10T05:37:29.211Z,99.99
2019-03-10T05:38:29.174Z,99.99
2019-03-10T05:39:29.201Z,99.99
2019-03-10T05:40:29.271Z,99.99
2019-03-10T05:41:29.290Z,99.99
2019-03-10T05:42:29.214Z,99.99
2019-03-10T05:43:29.253Z,99.99
2019-03-10T05:44:29.233Z,99.99
2019-03-10T05:45:29.311Z,99.99
2019-03-10T05:46:29.332Z,99.99
2019-03-10T05:47:29.298Z,99.99
2019-03-10T05:48:29.185Z,99.99
2019-03-10T05:49:29.213Z,99.99
2019-03-10T05:50:29.305Z,99.99
2019-03-10T05:51:29.303Z,99.99
2019-03-10T05:52:29.257Z,99.99
2019-03-10T05:53:29.341Z,99.99
2019-03-10T05:54:29.261Z,99.99
2019-03-10T05:55:29.251Z,99.99
2019-03-10T05:56:29.264Z,99.99
2019-03-10T05:57:29.314Z,99.99
2019-03-10T05:58:29.238Z,99.99
2019-03-10T05:59:29.248Z,99.99
2019-03-10T06:00:29.302Z,99.99
2019-03-10T06:01:29.247Z,99.99
2019-03-10T06:02:29.220Z,99.99
2019-03-10T06:03:29.230Z,99.99
2019-03-10T06:04:29.310Z,99.99
2019-03-10T06:05:29.249Z,99.99
2019-03-10T06:06:29.272Z,99.99
2019-03-10T06:07:29.329Z,99.99
2019-03-10T06:08:29.299Z,99.99
2019-03-10T06:09:29.262Z,99.99
2019-03-10T06:10:29.290Z,99.99
2019-03-10T06:11:29.264Z,99.99
2019-03-10T06:12:29.344Z,99.99
2019-03-10T06:13:29.330Z,99.99
2019-03-10T06:14:29.266Z,99.99
2019-03-10T06:15:29.285Z,99.99
2019-03-10T06:16:29.345Z,99.99
2019-03-10T06:17:29.342Z,99.99
2019-03-10T06:18:29.344Z,99.99
2019-03-10T06:19:29.267Z,99.99
2019-03-10T06:20:29.340Z,99.99
2019-03-10T06:21:29.277Z,99.99
2019-03-10T06:22:29.283Z,99.99
2019-03-10T06:23:29.346Z,99.99
2019-03-10T06:24:29.342Z,99.99
2019-03-10T06:25:29.417Z,99.99
2019-03-10T06:26:29.203Z,99.99
2019-03-10T06:27:29.198Z,99.99
2019-03-10T06:28:29.241Z,99.99
2019-03-10T06:29:29.265Z,99.99
2019-03-10T06:30:29.157Z,99.99
2019-03-10T06:31:29.264Z,99.99
2019-03-10T06:32:29.158Z,99.99
2019-03-10T06:33:29.267Z,99.99
2019-03-10T06:34:29.228Z,99.99
2019-03-10T06:35:29.246Z,99.99
2019-03-10T06:36:29.342Z,99.99
2019-03-10T06:37:29.342Z,99.99
2019-03-10T06:38:29.347Z,99.99
2019-03-10T06:39:29.279Z,99.99
2019-03-10T06:40:32.364Z,99.99
2019-03-10T06:41:29.352Z,99.99
2019-03-10T06:42:29.269Z,99.99
2019-03-10T06:43:29.272Z,99.99
2019-03-10T06:44:29.348Z,99.99
2019-03-10T06:45:29.278Z,99.99
2019-03-10T06:46:29.287Z,99.99
2019-03-10T06:47:29.364Z,99.99
2019-03-10T06:48:29.350Z,99.99
2019-03-10T06:49:29.275Z,99.99
2019-03-10T06:50:29.358Z,99.99
2019-03-10T06:51:29.282Z,99.99
2019-03-10T06:52:29.358Z,99.99
2019-03-10T06:53:29.290Z,99.99
2019-03-10T06:54:29.356Z,99.99
2019-03-10T06:55:29.294Z,99.99
2019-03-10T06:56:29.314Z,99.99
2019-03-10T06:57:29.239Z,99.99
2019-03-10T06:58:29.324Z,99.99
2019-03-10T06:59:29.225Z,99.99
2019-03-10T07:00:29.324Z,99.99
2019-03-10T07:01:29.249Z,99.99
2019-03-10T07:02:29.322Z,99.99
2019-03-10T07:03:29.314Z,99.99
2019-03-10T07:04:29.226Z,99.99
2019-03-10T07:05:29.330Z,99.99
2019-03-10T07:06:29.296Z,99.99
2019-03-10T07:07:29.371Z,99.99
2019-03-10T07:08:29.367Z,99.99
2019-03-10T07:09:29.365Z,99.99
2019-03-10T07:10:29.304Z,99.99
2019-03-10T07:11:29.366Z,99.99
2019-03-10T07:12:29.363Z,99.99
2019-03-10T07:13:29.293Z,99.99
2019-03-10T07:14:29.290Z,99.99
2019-03-10T07:15:29.372Z,99.99
2019-03-10T07:16:29.274Z,99.99
2019-03-10T07:17:29.295Z,99.99
2019-03-10T07:18:29.346Z,99.99
2019-03-10T07:19:29.285Z,99.99
2019-03-10T07:20:29.378Z,99.99
2019-03-10T07:21:29.301Z,99.99
2019-03-10T07:22:29.369Z,99.99
2019-03-10T07:23:29.348Z,99.99
2019-03-10T07:24:29.258Z,99.99
2019-03-10T07:25:29.300Z,99.99
2019-03-10T07:26:29.381Z,99.99
2019-03-10T07:27:29.390Z,99.99
2019-03-10T07:28:29.320Z,99.99
2019-03-10T07:29:29.402Z,99.99
2019-03-10T07:30:29.321Z,99.99
2019-03-10T07:31:29.318Z,99.99
2019-03-10T07:32:29.386Z,99.99
2019-03-10T07:33:29.328Z,99.99
2019-03-10T07:34:29.325Z,99.99
2019-03-10T07:35:29.322Z,99.99
2019-03-10T07:36:29.285Z,99.99
2019-03-10T07:37:29.309Z,99.99
2019-03-10T07:38:29.324Z,99.99
2019-03-10T07:39:29.257Z,99.99
2019-03-10T07:40:29.214Z,99.99
2019-03-10T07:41:29.234Z,99.99
2019-03-10T07:42:29.259Z,99.99
2019-03-10T07:43:29.321Z,99.99
2019-03-10T07:44:29.237Z,99.99
2019-03-10T07:45:29.329Z,99.99
2019-03-10T07:46:29.379Z,99.99
2019-03-10T07:47:29.290Z,99.99
2019-03-10T07:48:29.270Z,99.99
2019-03-10T07:49:29.378Z,99.99
2019-03-10T07:50:29.357Z,99.99
2019-03-10T07:51:29.329Z,99.99
2019-03-10T07:52:29.337Z,99.99
2019-03-10T07:53:29.394Z,99.99
2019-03-10T07:54:29.379Z,99.99
2019-03-10T07:55:29.332Z,99.99
2019-03-10T07:56:29.307Z,99.99
2019-03-10T07:57:29.399Z,99.99
2019-03-10T07:58:29.321Z,99.99
2019-03-10T07:59:29.402Z,99.99
2019-03-10T08:00:29.362Z,99.99
2019-03-10T08:01:29.349Z,99.99
2019-03-10T08:02:29.361Z,99.99
2019-03-10T08:03:29.402Z,99.99
2019-03-10T08:04:29.301Z,99.99
2019-03-10T08:05:29.408Z,99.99
2019-03-10T08:06:29.327Z,99.99
2019-03-10T08:07:29.427Z,99.99
2019-03-10T08:08:29.414Z,99.99
2019-03-10T08:09:29.375Z,99.99
2019-03-10T08:10:29.422Z,99.99
2019-03-10T08:11:29.409Z,99.99
2019-03-10T08:12:29.413Z,99.99
2019-03-10T08:13:29.470Z,99.99
2019-03-10T08:14:29.349Z,99.99
2019-03-10T08:15:29.418Z,99.99
2019-03-10T08:16:29.350Z,99.99
2019-03-10T08:17:29.419Z,99.99
2019-03-10T08:18:29.348Z,99.99
2019-03-10T08:19:29.358Z,99.99
2019-03-10T08:20:29.427Z,99.99
2019-03-10T08:21:29.426Z,99.99
2019-03-10T08:22:29.357Z,99.99
2019-03-10T08:23:29.359Z,99.99
2019-03-10T08:24:29.429Z,99.99
2019-03-10T08:25:29.376Z,99.99
2019-03-10T08:26:29.361Z,99.99
2019-03-10T08:27:29.483Z,99.99
2019-03-10T08:28:29.437Z,99.99
2019-03-10T08:29:29.424Z,99.99
2019-03-10T08:30:29.439Z,99.99
2019-03-10T08:31:29.431Z,99.99
2019-03-10T08:32:29.429Z,99.99
2019-03-10T08:33:29.433Z,99.99
2019-03-10T08:34:29.393Z,99.99
2019-03-10T08:35:29.376Z,99.99
2019-03-10T08:36:29.378Z,99.99
2019-03-10T08:37:29.384Z,99.99
2019-03-10T08:38:29.394Z,99.99
2019-03-10T08:39:29.352Z,99.99
2019-03-10T08:40:29.314Z,99.99
2019-03-10T08:41:29.386Z,99.99
2019-03-10T08:42:29.387Z,99.99
2019-03-10T08:43:29.361Z,99.99
2019-03-10T08:44:29.301Z,99.99
2019-03-10T08:45:29.382Z,99.99
2019-03-10T08:46:29.301Z,99.99
2019-03-10T08:47:29.378Z,99.99
2019-03-10T08:48:29.452Z,99.99
2019-03-10T08:49:29.377Z,99.99
2019-03-10T08:50:29.379Z,99.99
2019-03-10T08:51:29.450Z,99.99
2019-03-10T08:52:29.443Z,99.99
2019-03-10T08:53:29.381Z,99.99
2019-03-10T08:54:29.449Z,99.99
2019-03-10T08:55:29.378Z,99.99
2019-03-10T08:56:29.389Z,99.99
2019-03-10T08:57:29.450Z,99.99
2019-03-10T08:58:29.435Z,99.99
2019-03-10T08:59:29.353Z,99.99
2019-03-10T09:00:29.390Z,99.99
2019-03-10T09:01:29.372Z,99.99
2019-03-10T09:02:29.442Z,99.99
2019-03-10T09:03:29.369Z,99.99
2019-03-10T09:04:29.440Z,99.99
2019-03-10T09:05:29.392Z,99.99
2019-03-10T09:06:29.381Z,99.99
2019-03-10T09:07:29.354Z,99.99
2019-03-10T09:08:29.327Z,99.99
2019-03-10T09:09:29.447Z,99.99
2019-03-10T09:10:29.451Z,99.99
2019-03-10T09:11:29.449Z,99.99
2019-03-10T09:12:29.364Z,99.99
2019-03-10T09:13:29.351Z,99.99
2019-03-10T09:14:29.337Z,99.99
2019-03-10T09:15:29.425Z,99.99
2019-03-10T09:16:29.457Z,99.99
2019-03-10T09:17:29.342Z,99.99
2019-03-10T09:18:29.316Z,99.99
2019-03-10T09:19:29.332Z,99.99
2019-03-10T09:20:29.409Z,99.99
2019-03-10T09:21:29.411Z,99.99
2019-03-10T09:22:29.371Z,99.99
2019-03-10T09:23:29.417Z,99.99
2019-03-10T09:24:29.420Z,99.99
2019-03-10T09:25:29.323Z,99.99
2019-03-10T09:26:29.372Z,99.99
2019-03-10T09:27:29.435Z,99.99
2019-03-10T09:28:29.450Z,99.99
2019-03-10T09:29:29.453Z,99.99
2019-03-10T09:30:29.427Z,99.99
2019-03-10T09:31:29.448Z,99.99
2019-03-10T09:32:29.454Z,99.99
2019-03-10T09:33:29.368Z,99.99
2019-03-10T09:34:29.399Z,99.99
2019-03-10T09:35:29.465Z,99.99
2019-03-10T09:36:29.368Z,99.99
2019-03-10T09:37:29.460Z,99.99
2019-03-10T09:38:29.466Z,99.99
2019-03-10T09:39:29.381Z,99.99
2019-03-10T09:40:29.474Z,99.99
2019-03-10T09:41:29.412Z,99.99
2019-03-10T09:42:29.459Z,99.99
2019-03-10T09:43:29.385Z,99.99
2019-03-10T09:44:29.414Z,99.99
2019-03-10T09:45:29.382Z,99.99
2019-03-10T09:46:29.385Z,99.99
2019-03-10T09:47:29.479Z,99.99
2019-03-10T09:48:29.485Z,99.99
2019-03-10T09:49:29.483Z,99.99
2019-03-10T09:50:29.491Z,99.99
2019-03-10T09:51:29.484Z,99.99
2019-03-10T09:52:29.424Z,99.99
2019-03-10T09:53:29.445Z,99.99
2019-03-10T09:54:29.447Z,99.99
2019-03-10T09:55:29.498Z,99.99
2019-03-10T09:56:29.505Z,99.99
2019-03-10T09:57:29.432Z,99.99
2019-03-10T09:58:29.500Z,99.99
2019-03-10T09:59:29.489Z,99.99
2019-03-10T10:00:29.424Z,99.99
2019-03-10T10:01:29.493Z,99.99
2019-03-10T10:02:29.428Z,99.99
2019-03-10T10:03:29.558Z,99.99
2019-03-10T10:04:29.495Z,99.99
2019-03-10T10:05:29.491Z,99.99
2019-03-10T10:06:29.429Z,99.99
2019-03-10T10:07:29.486Z,99.99
2019-03-10T10:08:29.374Z,99.99
2019-03-10T10:09:29.417Z,99.99
2019-03-10T10:10:29.407Z,99.99
2019-03-10T10:11:29.390Z,99.99
2019-03-10T10:12:29.446Z,99.99
2019-03-10T10:13:29.496Z,99.99
2019-03-10T10:14:29.493Z,99.99
2019-03-10T10:15:29.404Z,99.99
2019-03-10T10:16:29.465Z,99.99
2019-03-10T10:17:29.503Z,99.99
2019-03-10T10:18:29.438Z,99.99
2019-03-10T10:19:29.505Z,99.99
2019-03-10T10:20:29.473Z,99.99
2019-03-10T10:21:29.453Z,99.99
2019-03-10T10:22:29.507Z,99.99
2019-03-10T10:23:29.446Z,99.99
2019-03-10T10:24:29.517Z,99.99
2019-03-10T10:25:29.507Z,99.99
2019-03-10T10:26:29.473Z,99.99
2019-03-10T10:27:29.334Z,99.99
2019-03-10T10:28:29.402Z,99.99
2019-03-10T10:29:29.391Z,99.99
2019-03-10T10:30:29.446Z,99.99
2019-03-10T10:31:29.338Z,99.99
2019-03-10T10:32:29.461Z,99.99
2019-03-10T10:33:29.382Z,99.99
2019-03-10T10:34:29.440Z,99.99
2019-03-10T10:35:29.337Z,99.99
2019-03-10T10:36:29.397Z,99.99
2019-03-10T10:37:29.497Z,99.99
2019-03-10T10:38:29.421Z,99.99
2019-03-10T10:39:29.472Z,99.99
2019-03-10T10:40:29.452Z,99.99
2019-03-10T10:41:29.496Z,99.99
2019-03-10T10:42:29.422Z,99.99
2019-03-10T10:43:29.390Z,99.99
2019-03-10T10:44:29.500Z,99.99
2019-03-10T10:45:29.509Z,99.99
2019-03-10T10:46:29.506Z,99.99
2019-03-10T10:47:29.476Z,99.99
2019-03-10T10:48:29.470Z,99.99
2019-03-10T10:49:29.529Z,99.99
2019-03-10T10:50:29.427Z,99.99
2019-03-10T10:51:29.919Z,99.99
2019-03-10T10:52:29.552Z,99.99
2019-03-10T10:53:29.557Z,99.99
2019-03-10T10:54:29.546Z,99.99
2019-03-10T10:55:30.561Z,99.99
2019-03-10T10:56:29.546Z,99.99
2019-03-10T10:57:29.586Z,99.99
2019-03-10T10:58:29.477Z,99.99
2019-03-10T10:59:29.536Z,99.99
2019-03-10T11:00:29.526Z,99.99
2019-03-10T11:01:29.425Z,99.99
2019-03-10T11:02:29.540Z,99.99
2019-03-10T11:03:29.469Z,99.99
2019-03-10T11:04:29.539Z,99.99
2019-03-10T11:05:29.485Z,99.99
2019-03-10T11:06:29.470Z,99.99
2019-03-10T11:07:29.434Z,99.99
2019-03-10T11:08:29.516Z,99.99
2019-03-10T11:09:29.443Z,99.99
2019-03-10T11:10:29.473Z,99.99
2019-03-10T11:11:29.504Z,99.99
2019-03-10T11:12:29.464Z,99.99
2019-03-10T11:13:29.437Z,99.99
2019-03-10T11:14:29.434Z,99.99
2019-03-10T11:15:29.451Z,99.99
2019-03-10T11:16:29.500Z,99.99
2019-03-10T11:17:29.477Z,99.99
2019-03-10T11:18:29.557Z,99.99
2019-03-10T11:19:29.547Z,99.99
2019-03-10T11:20:29.488Z,99.99
2019-03-10T11:21:29.481Z,99.99
2019-03-10T11:22:29.555Z,99.99
2019-03-10T11:23:29.488Z,99.99
2019-03-10T11:24:29.483Z,99.99
2019-03-10T11:25:29.567Z,99.99
2019-03-10T11:26:29.489Z,99.99
2019-03-10T11:27:29.558Z,99.99
2019-03-10T11:28:29.577Z,99.99
2019-03-10T11:29:29.492Z,99.99
2019-03-10T11:30:29.568Z,99.99
2019-03-10T11:31:29.497Z,99.99
2019-03-10T11:32:29.583Z,99.99
2019-03-10T11:33:29.509Z,99.99
2019-03-10T11:34:29.505Z,99.99
2019-03-10T11:35:29.450Z,99.99
2019-03-10T11:36:29.559Z,99.99
2019-03-10T11:37:29.561Z,99.99
2019-03-10T11:38:29.571Z,99.99
2019-03-10T11:39:29.561Z,99.99
2019-03-10T11:40:29.456Z,99.99
2019-03-10T11:41:33.761Z,99.99
2019-03-10T11:42:29.565Z,99.99
2019-03-10T11:43:29.577Z,99.99
2019-03-10T11:44:29.498Z,99.99
2019-03-10T11:45:29.566Z,99.99
2019-03-10T11:46:29.578Z,99.99
2019-03-10T11:47:29.436Z,99.99
2019-03-10T11:48:29.580Z,99.99
2019-03-10T11:49:29.459Z,99.99
2019-03-10T11:50:29.563Z,99.99
2019-03-10T11:51:29.467Z,99.99
2019-03-10T11:52:29.465Z,99.99
2019-03-10T11:53:29.496Z,99.99
2019-03-10T11:54:29.498Z,99.99
2019-03-10T11:55:29.472Z,99.99
2019-03-10T11:56:29.478Z,99.99
2019-03-10T11:57:29.464Z,99.99
2019-03-10T11:58:30.091Z,99.99
2019-03-10T11:59:29.590Z,99.99
2019-03-10T12:00:29.581Z,99.99
2019-03-10T12:01:29.513Z,99.99
2019-03-10T12:02:29.586Z,99.99
2019-03-10T12:03:29.590Z,99.99
2019-03-10T12:04:29.586Z,99.99
2019-03-10T12:05:29.517Z,99.99
2019-03-10T12:06:29.568Z,99.99
2019-03-10T12:07:29.531Z,99.99
2019-03-10T12:08:29.530Z,99.99
2019-03-10T12:09:29.586Z,99.99
2019-03-10T12:10:29.597Z,99.99
2019-03-10T12:11:29.525Z,99.99
2019-03-10T12:12:29.585Z,99.99
2019-03-10T12:13:29.595Z,99.99
2019-03-10T12:14:29.557Z,99.99
2019-03-10T12:15:29.602Z,99.99
2019-03-10T12:16:31.224Z,99.99
2019-03-10T12:17:29.524Z,99.99
2019-03-10T12:18:29.520Z,99.99
2019-03-10T12:19:29.550Z,99.99
2019-03-10T12:20:29.526Z,99.99
2019-03-10T12:21:29.528Z,99.99
2019-03-10T12:22:29.558Z,99.99
2019-03-10T12:23:29.527Z,99.99
2019-03-10T12:24:29.532Z,99.99
2019-03-10T12:25:29.565Z,99.99
2019-03-10T12:26:29.541Z,99.99
2019-03-10T12:27:29.529Z,99.99
2019-03-10T12:28:29.599Z,99.99
2019-03-10T12:29:29.542Z,99.99
2019-03-10T12:30:29.601Z,99.99
2019-03-10T12:31:29.602Z,99.99
2019-03-10T12:32:29.532Z,99.99
2019-03-10T12:33:29.533Z,99.99
2019-03-10T12:34:29.611Z,99.99
2019-03-10T12:35:34.381Z,99.99
2019-03-10T12:36:29.604Z,99.99
2019-03-10T12:37:29.537Z,99.99
2019-03-10T12:38:29.533Z,99.99
2019-03-10T12:39:29.630Z,99.99
2019-03-10T12:40:29.634Z,99.99
2019-03-10T12:41:29.605Z,99.99
2019-03-10T12:42:29.545Z,99.99
2019-03-10T12:43:29.543Z,99.99
2019-03-10T12:44:30.648Z,99.99
2019-03-10T12:45:29.542Z,99.99
2019-03-10T12:46:29.585Z,99.99
2019-03-10T12:47:29.550Z,99.99
2019-03-10T12:48:29.645Z,99.99
2019-03-10T12:49:29.601Z,99.99
2019-03-10T12:50:29.587Z,99.99
2019-03-10T12:51:29.554Z,99.99
2019-03-10T12:52:29.560Z,99.99